sensor_id;sensor_type;location;lat;lon;timestamp;pressure;altitude;pressure_sealevel;temperature;humidity
67434;BME280;54305;47.950;6.572;2022-07-29T00:02:10;94225.34;;;16.95;59.99
67434;BME280;54305;47.950;6.572;2022-07-29T00:04:35;94222.53;;;16.96;60.00
67434;BME280;54305;47.950;6.572;2022-07-29T00:07:01;94212.78;;;16.97;60.08
67434;BME280;54305;47.950;6.572;2022-07-29T00:09:26;94215.63;;;17.02;60.07
67434;BME280;54305;47.950;6.572;2022-07-29T00:11:52;94213.63;;;16.97;60.19
67434;BME280;54305;47.950;6.572;2022-07-29T00:14:18;94214.84;;;16.95;60.38
67434;BME280;54305;47.950;6.572;2022-07-29T00:16:44;94215.22;;;16.92;60.43
67434;BME280;54305;47.950;6.572;2022-07-29T00:19:09;94210.78;;;16.92;60.48
67434;BME280;54305;47.950;6.572;2022-07-29T00:21:34;94213.22;;;16.94;60.33
67434;BME280;54305;47.950;6.572;2022-07-29T00:23:59;94211.59;;;16.93;60.90
67434;BME280;54305;47.950;6.572;2022-07-29T00:26:25;94213.03;;;16.89;60.87
67434;BME280;54305;47.950;6.572;2022-07-29T00:28:52;94206.75;;;16.90;60.43
67434;BME280;54305;47.950;6.572;2022-07-29T00:31:17;94207.13;;;16.87;61.27
67434;BME280;54305;47.950;6.572;2022-07-29T00:33:43;94201.88;;;16.87;61.16
67434;BME280;54305;47.950;6.572;2022-07-29T00:36:08;94202.88;;;16.86;61.22
67434;BME280;54305;47.950;6.572;2022-07-29T00:38:33;94207.56;;;16.77;61.17
67434;BME280;54305;47.950;6.572;2022-07-29T00:40:58;94205.94;;;16.70;61.63
67434;BME280;54305;47.950;6.572;2022-07-29T00:43:24;94205.91;;;16.63;62.03
67434;BME280;54305;47.950;6.572;2022-07-29T00:45:49;94206.69;;;16.64;61.60
67434;BME280;54305;47.950;6.572;2022-07-29T00:48:15;94210.53;;;16.61;62.09
67434;BME280;54305;47.950;6.572;2022-07-29T00:50:40;94217.00;;;16.59;62.13
67434;BME280;54305;47.950;6.572;2022-07-29T00:53:06;94211.53;;;16.54;62.59
67434;BME280;54305;47.950;6.572;2022-07-29T00:55:31;94208.91;;;16.54;62.58
67434;BME280;54305;47.950;6.572;2022-07-29T00:57:57;94206.06;;;16.49;63.14
67434;BME280;54305;47.950;6.572;2022-07-29T01:00:25;94205.47;;;16.47;62.92
67434;BME280;54305;47.950;6.572;2022-07-29T01:02:51;94206.63;;;16.38;63.57
67434;BME280;54305;47.950;6.572;2022-07-29T01:05:17;94206.69;;;16.44;63.17
67434;BME280;54305;47.950;6.572;2022-07-29T01:07:43;94210.75;;;16.47;63.39
67434;BME280;54305;47.950;6.572;2022-07-29T01:10:09;94210.31;;;16.50;63.27
67434;BME280;54305;47.950;6.572;2022-07-29T01:12:35;94220.25;;;16.48;63.43
67434;BME280;54305;47.950;6.572;2022-07-29T01:15:02;94213.56;;;16.45;63.90
67434;BME280;54305;47.950;6.572;2022-07-29T01:29:59;94208.63;;;16.23;65.14
67434;BME280;54305;47.950;6.572;2022-07-29T01:32:27;94211.84;;;16.25;64.28
67434;BME280;54305;47.950;6.572;2022-07-29T01:35:04;94208.25;;;16.26;64.64
67434;BME280;54305;47.950;6.572;2022-07-29T01:38:14;94207.41;;;16.19;64.84
67434;BME280;54305;47.950;6.572;2022-07-29T01:40:20;94206.19;;;16.21;64.67
67434;BME280;54305;47.950;6.572;2022-07-29T01:42:51;94201.34;;;16.25;64.57
67434;BME280;54305;47.950;6.572;2022-07-29T01:45:21;94197.31;;;16.29;64.71
67434;BME280;54305;47.950;6.572;2022-07-29T01:50:14;94206.59;;;16.25;64.70
67434;BME280;54305;47.950;6.572;2022-07-29T01:52:52;94201.53;;;16.17;65.50
67434;BME280;54305;47.950;6.572;2022-07-29T01:55:20;94204.59;;;16.27;64.74
67434;BME280;54305;47.950;6.572;2022-07-29T01:57:47;94201.34;;;16.25;64.59
67434;BME280;54305;47.950;6.572;2022-07-29T02:00:13;94212.28;;;16.28;64.78
67434;BME280;54305;47.950;6.572;2022-07-29T02:02:39;94204.81;;;16.32;64.74
67434;BME280;54305;47.950;6.572;2022-07-29T02:05:05;94198.53;;;16.26;65.80
67434;BME280;54305;47.950;6.572;2022-07-29T02:07:33;94203.13;;;16.11;65.72
67434;BME280;54305;47.950;6.572;2022-07-29T02:09:59;94202.94;;;16.13;65.78
67434;BME280;54305;47.950;6.572;2022-07-29T02:12:25;94208.19;;;16.13;65.82
67434;BME280;54305;47.950;6.572;2022-07-29T02:14:53;94208.59;;;16.10;65.44
67434;BME280;54305;47.950;6.572;2022-07-29T02:17:21;94209.81;;;16.14;65.26
67434;BME280;54305;47.950;6.572;2022-07-29T02:19:47;94208.38;;;16.05;65.93
67434;BME280;54305;47.950;6.572;2022-07-29T02:22:14;94209.22;;;16.12;65.51
67434;BME280;54305;47.950;6.572;2022-07-29T02:24:39;94211.00;;;16.05;65.51
67434;BME280;54305;47.950;6.572;2022-07-29T02:27:06;94208.94;;;15.94;65.75
67434;BME280;54305;47.950;6.572;2022-07-29T02:29:32;94215.41;;;15.98;66.50
67434;BME280;54305;47.950;6.572;2022-07-29T02:31:58;94210.53;;;15.95;66.52
67434;BME280;54305;47.950;6.572;2022-07-29T02:34:25;94206.69;;;15.91;66.42
67434;BME280;54305;47.950;6.572;2022-07-29T02:36:52;94201.66;;;15.96;66.60
67434;BME280;54305;47.950;6.572;2022-07-29T02:39:19;94215.41;;;15.98;67.00
67434;BME280;54305;47.950;6.572;2022-07-29T02:41:46;94210.94;;;15.92;66.32
67434;BME280;54305;47.950;6.572;2022-07-29T02:44:13;94209.72;;;15.88;66.85
67434;BME280;54305;47.950;6.572;2022-07-29T02:46:43;94214.34;;;15.86;67.16
67434;BME280;54305;47.950;6.572;2022-07-29T02:49:15;94205.25;;;15.88;66.99
67434;BME280;54305;47.950;6.572;2022-07-29T02:51:43;94202.44;;;15.90;67.21
67434;BME280;54305;47.950;6.572;2022-07-29T02:54:10;94197.16;;;15.83;66.55
67434;BME280;54305;47.950;6.572;2022-07-29T02:56:40;94202.84;;;15.87;66.62
67434;BME280;54305;47.950;6.572;2022-07-29T02:59:08;94210.50;;;15.82;67.02
67434;BME280;54305;47.950;6.572;2022-07-29T03:01:34;94204.84;;;15.85;66.94
67434;BME280;54305;47.950;6.572;2022-07-29T03:04:00;94200.78;;;15.76;67.75
67434;BME280;54305;47.950;6.572;2022-07-29T03:06:26;94203.63;;;15.81;67.43
67434;BME280;54305;47.950;6.572;2022-07-29T03:08:52;94203.47;;;15.89;67.13
67434;BME280;54305;47.950;6.572;2022-07-29T03:11:18;94209.31;;;15.91;67.33
67434;BME280;54305;47.950;6.572;2022-07-29T03:13:44;94203.31;;;15.97;67.32
67434;BME280;54305;47.950;6.572;2022-07-29T03:16:10;94203.31;;;15.97;67.40
67434;BME280;54305;47.950;6.572;2022-07-29T03:18:36;94206.16;;;16.02;67.35
67434;BME280;54305;47.950;6.572;2022-07-29T03:21:02;94198.06;;;16.10;67.86
67434;BME280;54305;47.950;6.572;2022-07-29T03:23:28;94198.69;;;16.12;67.00
67434;BME280;54305;47.950;6.572;2022-07-29T03:25:53;94197.69;;;16.13;67.28
67434;BME280;54305;47.950;6.572;2022-07-29T03:28:19;94199.72;;;16.17;67.81
67434;BME280;54305;47.950;6.572;2022-07-29T03:30:45;94204.75;;;16.12;67.34
67434;BME280;54305;47.950;6.572;2022-07-29T03:33:10;94198.09;;;16.16;67.86
67434;BME280;54305;47.950;6.572;2022-07-29T03:35:35;94199.16;;;16.28;67.76
67434;BME280;54305;47.950;6.572;2022-07-29T03:38:01;94201.72;;;16.15;67.47
67434;BME280;54305;47.950;6.572;2022-07-29T03:40:30;94200.31;;;16.13;67.52
67434;BME280;54305;47.950;6.572;2022-07-29T03:42:57;94202.53;;;16.09;67.85
67434;BME280;54305;47.950;6.572;2022-07-29T03:45:24;94195.06;;;16.13;67.94
67434;BME280;54305;47.950;6.572;2022-07-29T03:47:52;94199.69;;;16.11;67.68
67434;BME280;54305;47.950;6.572;2022-07-29T03:50:18;94199.31;;;16.14;67.75
67434;BME280;54305;47.950;6.572;2022-07-29T03:52:45;94199.31;;;16.14;67.62
67434;BME280;54305;47.950;6.572;2022-07-29T03:55:11;94198.69;;;16.12;67.75
67434;BME280;54305;47.950;6.572;2022-07-29T03:57:36;94202.53;;;16.09;68.15
67434;BME280;54305;47.950;6.572;2022-07-29T04:00:03;94209.38;;;16.04;68.23
67434;BME280;54305;47.950;6.572;2022-07-29T04:02:29;94211.78;;;15.99;68.36
67434;BME280;54305;47.950;6.572;2022-07-29T04:04:55;94210.53;;;15.95;68.69
67434;BME280;54305;47.950;6.572;2022-07-29T04:07:20;94203.50;;;15.95;68.33
67434;BME280;54305;47.950;6.572;2022-07-29T04:09:46;94202.88;;;16.00;68.33
67434;BME280;54305;47.950;6.572;2022-07-29T04:12:11;94202.50;;;16.03;68.42
67434;BME280;54305;47.950;6.572;2022-07-29T04:14:37;94197.66;;;16.06;67.86
67434;BME280;54305;47.950;6.572;2022-07-29T04:17:02;94197.28;;;16.09;67.74
67434;BME280;54305;47.950;6.572;2022-07-29T04:19:28;94206.19;;;16.21;67.73
67434;BME280;54305;47.950;6.572;2022-07-29T04:21:54;94206.81;;;16.30;67.43
67434;BME280;54305;47.950;6.572;2022-07-29T04:24:19;94221.59;;;16.31;67.59
67434;BME280;54305;47.950;6.572;2022-07-29T04:26:45;94228.47;;;16.32;67.43
67434;BME280;54305;47.950;6.572;2022-07-29T04:29:10;94226.41;;;16.27;67.75
67434;BME280;54305;47.950;6.572;2022-07-29T04:31:36;94234.53;;;16.26;67.34
67434;BME280;54305;47.950;6.572;2022-07-29T04:34:02;94229.25;;;16.26;67.07
67434;BME280;54305;47.950;6.572;2022-07-29T04:36:27;94231.28;;;16.30;66.89
67434;BME280;54305;47.950;6.572;2022-07-29T04:38:52;94233.31;;;16.35;67.01
67434;BME280;54305;47.950;6.572;2022-07-29T04:41:18;94232.94;;;16.38;66.46
67434;BME280;54305;47.950;6.572;2022-07-29T04:43:43;94233.38;;;16.48;66.64
67434;BME280;54305;47.950;6.572;2022-07-29T04:46:08;94239.47;;;16.48;67.02
67434;BME280;54305;47.950;6.572;2022-07-29T04:48:33;94241.88;;;16.50;66.88
67434;BME280;54305;47.950;6.572;2022-07-29T04:50:59;94237.84;;;16.54;66.78
67434;BME280;54305;47.950;6.572;2022-07-29T04:53:24;94245.94;;;16.59;67.28
67434;BME280;54305;47.950;6.572;2022-07-29T04:55:49;94240.72;;;16.72;67.64
67434;BME280;54305;47.950;6.572;2022-07-29T04:58:15;94243.94;;;16.61;68.56
67434;BME280;54305;47.950;6.572;2022-07-29T05:00:40;94248.38;;;16.67;67.63
67434;BME280;54305;47.950;6.572;2022-07-29T05:03:05;94252.06;;;16.72;67.33
67434;BME280;54305;47.950;6.572;2022-07-29T05:05:31;94253.28;;;16.89;66.57
67434;BME280;54305;47.950;6.572;2022-07-29T05:07:56;94267.44;;;16.82;67.13
67434;BME280;54305;47.950;6.572;2022-07-29T05:10:21;94261.78;;;16.85;66.13
67434;BME280;54305;47.950;6.572;2022-07-29T05:12:47;94257.31;;;16.92;65.76
67434;BME280;54305;47.950;6.572;2022-07-29T05:15:12;94261.75;;;16.98;66.04
67434;BME280;54305;47.950;6.572;2022-07-29T05:17:37;94257.34;;;17.05;66.58
67434;BME280;54305;47.950;6.572;2022-07-29T05:20:03;94258.56;;;17.09;66.33
67434;BME280;54305;47.950;6.572;2022-07-29T05:22:28;94250.88;;;17.14;66.77
67434;BME280;54305;47.950;6.572;2022-07-29T05:24:54;94262.81;;;17.23;66.53
67434;BME280;54305;47.950;6.572;2022-07-29T05:27:19;94261.81;;;17.37;66.07
67434;BME280;54305;47.950;6.572;2022-07-29T05:29:45;94265.25;;;17.57;65.38
67434;BME280;54305;47.950;6.572;2022-07-29T05:32:10;94254.06;;;17.81;64.37
67434;BME280;54305;47.950;6.572;2022-07-29T05:34:35;94249.47;;;18.14;63.48
67434;BME280;54305;47.950;6.572;2022-07-29T05:37:01;94267.66;;;18.41;62.73
67434;BME280;54305;47.950;6.572;2022-07-29T05:39:26;94261.41;;;18.67;61.81
67434;BME280;54305;47.950;6.572;2022-07-29T05:41:51;94261.59;;;19.03;60.67
67434;BME280;54305;47.950;6.572;2022-07-29T05:44:17;94262.63;;;19.33;57.84
67434;BME280;54305;47.950;6.572;2022-07-29T05:46:42;94265.56;;;19.43;58.24
67434;BME280;54305;47.950;6.572;2022-07-29T05:49:07;94266.91;;;19.52;58.01
67434;BME280;54305;47.950;6.572;2022-07-29T05:51:33;94261.22;;;19.55;57.70
67434;BME280;54305;47.950;6.572;2022-07-29T05:53:59;94268.00;;;19.69;57.37
67434;BME280;54305;47.950;6.572;2022-07-29T05:56:24;94267.84;;;19.82;56.37
67434;BME280;54305;47.950;6.572;2022-07-29T05:58:50;94273.34;;;19.80;54.40
67434;BME280;54305;47.950;6.572;2022-07-29T06:01:15;94274.31;;;19.86;55.22
67434;BME280;54305;47.950;6.572;2022-07-29T06:03:41;94278.31;;;19.95;55.81
67434;BME280;54305;47.950;6.572;2022-07-29T06:06:06;94279.03;;;20.02;55.92
67434;BME280;54305;47.950;6.572;2022-07-29T06:08:32;94278.19;;;20.08;56.65
67434;BME280;54305;47.950;6.572;2022-07-29T06:10:58;94283.03;;;20.11;56.73
67434;BME280;54305;47.950;6.572;2022-07-29T06:13:24;94278.59;;;20.05;56.00
67434;BME280;54305;47.950;6.572;2022-07-29T06:15:49;94290.97;;;20.11;56.09
67434;BME280;54305;47.950;6.572;2022-07-29T06:18:14;94289.50;;;20.15;55.34
67434;BME280;54305;47.950;6.572;2022-07-29T06:20:39;94292.00;;;20.28;57.47
67434;BME280;54305;47.950;6.572;2022-07-29T06:23:05;94295.84;;;20.32;56.06
67434;BME280;54305;47.950;6.572;2022-07-29T06:25:30;94298.63;;;20.37;56.20
67434;BME280;54305;47.950;6.572;2022-07-29T06:27:59;94304.41;;;20.46;54.07
67434;BME280;54305;47.950;6.572;2022-07-29T06:30:25;94304.19;;;20.47;52.73
67434;BME280;54305;47.950;6.572;2022-07-29T06:32:50;94300.38;;;20.61;53.95
67434;BME280;54305;47.950;6.572;2022-07-29T06:35:16;94306.22;;;20.81;53.76
67434;BME280;54305;47.950;6.572;2022-07-29T06:37:41;94306.91;;;20.88;54.76
67434;BME280;54305;47.950;6.572;2022-07-29T06:40:06;94307.31;;;20.92;52.63
67434;BME280;54305;47.950;6.572;2022-07-29T06:42:50;94311.34;;;20.94;51.15
67434;BME280;54305;47.950;6.572;2022-07-29T06:45:15;94313.81;;;20.89;51.94
67434;BME280;54305;47.950;6.572;2022-07-29T06:47:41;94305.16;;;21.00;50.90
67434;BME280;54305;47.950;6.572;2022-07-29T06:50:06;94311.16;;;20.78;50.18
67434;BME280;54305;47.950;6.572;2022-07-29T06:52:32;94318.72;;;20.92;51.03
67434;BME280;54305;47.950;6.572;2022-07-29T06:54:57;94318.13;;;20.72;51.79
67434;BME280;54305;47.950;6.572;2022-07-29T06:57:23;94314.88;;;20.70;52.54
67434;BME280;54305;47.950;6.572;2022-07-29T06:59:48;94326.50;;;20.87;50.56
67434;BME280;54305;47.950;6.572;2022-07-29T07:02:14;94312.88;;;21.02;49.86
67434;BME280;54305;47.950;6.572;2022-07-29T07:04:39;94317.63;;;21.11;51.28
67434;BME280;54305;47.950;6.572;2022-07-29T07:07:04;94324.06;;;21.04;48.49
67434;BME280;54305;47.950;6.572;2022-07-29T07:09:30;94330.84;;;21.00;49.14
67434;BME280;54305;47.950;6.572;2022-07-29T07:11:55;94328.94;;;21.18;48.13
67434;BME280;54305;47.950;6.572;2022-07-29T07:14:20;94334.97;;;21.25;48.00
67434;BME280;54305;47.950;6.572;2022-07-29T07:16:46;94338.00;;;21.40;47.13
67434;BME280;54305;47.950;6.572;2022-07-29T07:19:11;94326.66;;;21.33;46.39
67434;BME280;54305;47.950;6.572;2022-07-29T07:21:36;94342.91;;;21.25;47.43
67434;BME280;54305;47.950;6.572;2022-07-29T07:24:02;94334.22;;;21.18;47.70
67434;BME280;54305;47.950;6.572;2022-07-29T07:26:27;94340.69;;;21.52;48.12
67434;BME280;54305;47.950;6.572;2022-07-29T07:28:54;94345.84;;;21.99;46.68
67434;BME280;54305;47.950;6.572;2022-07-29T07:31:20;94345.47;;;22.53;45.19
67434;BME280;54305;47.950;6.572;2022-07-29T07:33:45;94338.28;;;22.88;42.50
67434;BME280;54305;47.950;6.572;2022-07-29T07:36:10;94336.38;;;23.00;42.69
67434;BME280;54305;47.950;6.572;2022-07-29T07:38:36;94335.50;;;23.11;41.38
67434;BME280;54305;47.950;6.572;2022-07-29T07:41:01;94339.09;;;23.45;40.46
67434;BME280;54305;47.950;6.572;2022-07-29T07:43:26;94339.41;;;23.48;41.70
67434;BME280;54305;47.950;6.572;2022-07-29T07:45:52;94327.06;;;23.14;40.87
67434;BME280;54305;47.950;6.572;2022-07-29T07:48:17;94330.13;;;22.67;42.25
67434;BME280;54305;47.950;6.572;2022-07-29T07:50:43;94333.72;;;22.03;44.17
67434;BME280;54305;47.950;6.572;2022-07-29T07:53:08;94335.72;;;21.55;43.44
67434;BME280;54305;47.950;6.572;2022-07-29T07:55:38;94335.31;;;21.81;45.93
67434;BME280;54305;47.950;6.572;2022-07-29T07:58:04;94339.84;;;21.92;46.72
67434;BME280;54305;47.950;6.572;2022-07-29T08:00:29;94339.16;;;21.97;46.16
67434;BME280;54305;47.950;6.572;2022-07-29T08:02:54;94338.34;;;21.96;44.68
67434;BME280;54305;47.950;6.572;2022-07-29T08:05:20;94336.97;;;22.51;44.77
67434;BME280;54305;47.950;6.572;2022-07-29T08:07:45;94332.13;;;22.25;43.00
67434;BME280;54305;47.950;6.572;2022-07-29T08:10:11;94339.38;;;22.07;42.55
67434;BME280;54305;47.950;6.572;2022-07-29T08:12:37;94344.25;;;21.57;44.15
67434;BME280;54305;47.950;6.572;2022-07-29T08:15:02;94344.00;;;21.47;44.07
67434;BME280;54305;47.950;6.572;2022-07-29T08:17:27;94350.53;;;21.74;45.86
67434;BME280;54305;47.950;6.572;2022-07-29T08:19:53;94357.94;;;21.95;43.82
67434;BME280;54305;47.950;6.572;2022-07-29T08:22:19;94360.44;;;21.67;43.81
67434;BME280;54305;47.950;6.572;2022-07-29T08:24:44;94359.06;;;21.76;43.85
67434;BME280;54305;47.950;6.572;2022-07-29T08:27:17;94355.66;;;21.87;43.48
67434;BME280;54305;47.950;6.572;2022-07-29T08:29:43;94354.13;;;22.03;43.67
67434;BME280;54305;47.950;6.572;2022-07-29T08:32:08;94350.31;;;22.33;43.61
67434;BME280;54305;47.950;6.572;2022-07-29T08:34:34;94345.03;;;22.56;43.78
67434;BME280;54305;47.950;6.572;2022-07-29T08:36:59;94343.09;;;22.91;42.78
67434;BME280;54305;47.950;6.572;2022-07-29T08:39:24;94349.78;;;22.54;42.75
67434;BME280;54305;47.950;6.572;2022-07-29T08:41:50;94345.50;;;22.30;41.33
67434;BME280;54305;47.950;6.572;2022-07-29T08:44:17;94348.25;;;22.58;41.78
67434;BME280;54305;47.950;6.572;2022-07-29T08:46:42;94343.50;;;22.72;42.07
67434;BME280;54305;47.950;6.572;2022-07-29T08:49:08;94348.22;;;23.09;43.15
67434;BME280;54305;47.950;6.572;2022-07-29T08:51:34;94342.63;;;23.34;41.38
67434;BME280;54305;47.950;6.572;2022-07-29T08:54:00;94345.38;;;23.55;40.64
67434;BME280;54305;47.950;6.572;2022-07-29T08:56:26;94338.38;;;23.49;41.11
67434;BME280;54305;47.950;6.572;2022-07-29T08:58:52;94340.94;;;23.44;41.82
67434;BME280;54305;47.950;6.572;2022-07-29T09:01:22;94338.78;;;23.41;42.32
67434;BME280;54305;47.950;6.572;2022-07-29T09:03:48;94340.06;;;23.39;41.95
67434;BME280;54305;47.950;6.572;2022-07-29T09:06:15;94339.53;;;23.25;42.08
67434;BME280;54305;47.950;6.572;2022-07-29T09:08:42;94344.03;;;22.85;40.76
67434;BME280;54305;47.950;6.572;2022-07-29T09:11:07;94355.03;;;22.77;41.01
67434;BME280;54305;47.950;6.572;2022-07-29T09:13:33;94360.59;;;22.41;41.82
67434;BME280;54305;47.950;6.572;2022-07-29T09:15:59;94361.66;;;22.40;43.26
67434;BME280;54305;47.950;6.572;2022-07-29T09:20:59;94366.25;;;21.87;42.59
67434;BME280;54305;47.950;6.572;2022-07-29T09:26:33;94363.00;;;21.85;41.02
67434;BME280;54305;47.950;6.572;2022-07-29T09:28:59;94360.72;;;22.12;44.64
67434;BME280;54305;47.950;6.572;2022-07-29T09:31:34;94361.19;;;22.20;40.58
67434;BME280;54305;47.950;6.572;2022-07-29T09:34:00;94360.63;;;22.53;43.75
67434;BME280;54305;47.950;6.572;2022-07-29T09:36:25;94354.00;;;22.78;42.80
67434;BME280;54305;47.950;6.572;2022-07-29T09:38:58;94361.78;;;22.96;41.07
67434;BME280;54305;47.950;6.572;2022-07-29T09:41:24;94360.00;;;22.39;40.77
67434;BME280;54305;47.950;6.572;2022-07-29T09:43:54;94364.88;;;22.42;39.48
67434;BME280;54305;47.950;6.572;2022-07-29T09:46:19;94373.16;;;22.34;40.86
67434;BME280;54305;47.950;6.572;2022-07-29T09:48:44;94370.28;;;22.70;40.93
67434;BME280;54305;47.950;6.572;2022-07-29T09:51:19;94361.88;;;23.01;40.65
67434;BME280;54305;47.950;6.572;2022-07-29T09:53:44;94366.38;;;23.12;40.79
67434;BME280;54305;47.950;6.572;2022-07-29T09:56:10;94353.31;;;22.71;40.08
67434;BME280;54305;47.950;6.572;2022-07-29T09:58:35;94372.97;;;22.47;40.76
67434;BME280;54305;47.950;6.572;2022-07-29T10:01:01;94372.72;;;22.14;40.24
67434;BME280;54305;47.950;6.572;2022-07-29T10:03:26;94364.28;;;21.94;41.16
67434;BME280;54305;47.950;6.572;2022-07-29T10:08:29;94363.59;;;21.87;41.63
67434;BME280;54305;47.950;6.572;2022-07-29T10:11:08;94367.50;;;21.73;40.69
67434;BME280;54305;47.950;6.572;2022-07-29T10:13:34;94364.88;;;22.19;40.03
67434;BME280;54305;47.950;6.572;2022-07-29T10:15:59;94379.84;;;21.91;40.05
67434;BME280;54305;47.950;6.572;2022-07-29T10:18:25;94371.09;;;22.13;40.61
67434;BME280;54305;47.950;6.572;2022-07-29T10:20:50;94375.94;;;21.93;40.71
67434;BME280;54305;47.950;6.572;2022-07-29T10:23:16;94371.19;;;21.95;40.69
67434;BME280;54305;47.950;6.572;2022-07-29T10:25:41;94367.75;;;22.18;40.04
67434;BME280;54305;47.950;6.572;2022-07-29T10:28:07;94365.47;;;22.95;41.20
67434;BME280;54305;47.950;6.572;2022-07-29T10:30:32;94373.34;;;22.90;38.71
67434;BME280;54305;47.950;6.572;2022-07-29T10:41:31;94370.88;;;23.68;38.43
67434;BME280;54305;47.950;6.572;2022-07-29T10:46:24;94371.28;;;23.32;37.19
67434;BME280;54305;47.950;6.572;2022-07-29T10:54:15;94366.44;;;22.89;39.61
67434;BME280;54305;47.950;6.572;2022-07-29T10:56:41;94377.75;;;22.73;39.51
67434;BME280;54305;47.950;6.572;2022-07-29T11:01:52;94378.34;;;23.26;39.70
67434;BME280;54305;47.950;6.572;2022-07-29T11:05:03;94381.41;;;23.07;39.39
67434;BME280;54305;47.950;6.572;2022-07-29T11:07:06;94382.41;;;22.66;39.92
67434;BME280;54305;47.950;6.572;2022-07-29T11:09:32;94379.06;;;23.10;42.11
67434;BME280;54305;47.950;6.572;2022-07-29T11:11:58;94382.22;;;23.07;40.80
67434;BME280;54305;47.950;6.572;2022-07-29T11:17:07;94381.28;;;23.02;39.90
67434;BME280;54305;47.950;6.572;2022-07-29T11:19:33;94388.09;;;23.09;40.62
67434;BME280;54305;47.950;6.572;2022-07-29T11:21:58;94373.88;;;23.43;39.74
67434;BME280;54305;47.950;6.572;2022-07-29T11:27:08;94380.91;;;24.27;39.39
67434;BME280;54305;47.950;6.572;2022-07-29T11:29:40;94385.19;;;24.11;37.12
67434;BME280;54305;47.950;6.572;2022-07-29T11:32:12;94383.72;;;23.03;40.58
67434;BME280;54305;47.950;6.572;2022-07-29T11:34:39;94389.72;;;23.66;41.09
67434;BME280;54305;47.950;6.572;2022-07-29T11:39:40;94388.00;;;23.04;42.79
67434;BME280;54305;47.950;6.572;2022-07-29T11:44:53;94385.78;;;23.01;43.33
67434;BME280;54305;47.950;6.572;2022-07-29T11:47:20;94386.91;;;23.28;43.86
67434;BME280;54305;47.950;6.572;2022-07-29T11:49:46;94385.72;;;23.36;42.77
67434;BME280;54305;47.950;6.572;2022-07-29T11:52:12;94384.88;;;23.63;42.61
67434;BME280;54305;47.950;6.572;2022-07-29T11:54:38;94378.28;;;23.10;43.85
67434;BME280;54305;47.950;6.572;2022-07-29T11:57:06;94383.41;;;23.56;43.69
67434;BME280;54305;47.950;6.572;2022-07-29T11:59:32;94377.91;;;23.06;42.92
67434;BME280;54305;47.950;6.572;2022-07-29T12:02:03;94382.13;;;23.58;43.75
67434;BME280;54305;47.950;6.572;2022-07-29T12:04:28;94384.38;;;23.50;40.42
67434;BME280;54305;47.950;6.572;2022-07-29T12:06:55;94390.50;;;23.22;39.17
67434;BME280;54305;47.950;6.572;2022-07-29T12:09:21;94384.59;;;23.76;39.21
67434;BME280;54305;47.950;6.572;2022-07-29T12:11:47;94388.91;;;23.66;37.73
67434;BME280;54305;47.950;6.572;2022-07-29T12:14:32;94386.97;;;24.22;38.08
67434;BME280;54305;47.950;6.572;2022-07-29T12:16:59;94382.81;;;24.64;36.48
67434;BME280;54305;47.950;6.572;2022-07-29T12:19:24;94399.94;;;24.02;35.54
67434;BME280;54305;47.950;6.572;2022-07-29T12:21:51;94388.63;;;24.61;35.39
67434;BME280;54305;47.950;6.572;2022-07-29T12:24:17;94389.75;;;24.65;34.32
67434;BME280;54305;47.950;6.572;2022-07-29T12:26:50;94372.78;;;24.71;34.01
67434;BME280;54305;47.950;6.572;2022-07-29T12:29:16;94383.16;;;24.35;34.70
67434;BME280;54305;47.950;6.572;2022-07-29T12:31:42;94388.47;;;23.85;33.79
67434;BME280;54305;47.950;6.572;2022-07-29T12:34:08;94382.53;;;23.95;34.69
67434;BME280;54305;47.950;6.572;2022-07-29T12:36:33;94384.78;;;24.52;31.97
67434;BME280;54305;47.950;6.572;2022-07-29T12:38:59;94377.09;;;24.94;31.78
67434;BME280;54305;47.950;6.572;2022-07-29T12:41:26;94384.75;;;24.90;29.40
67434;BME280;54305;47.950;6.572;2022-07-29T12:43:55;94384.44;;;24.65;30.10
67434;BME280;54305;47.950;6.572;2022-07-29T12:46:21;94380.13;;;25.02;29.91
67434;BME280;54305;47.950;6.572;2022-07-29T12:48:49;94376.84;;;24.57;31.06
67434;BME280;54305;47.950;6.572;2022-07-29T12:51:15;94363.59;;;25.48;30.76
67434;BME280;54305;47.950;6.572;2022-07-29T12:53:41;94362.56;;;26.75;26.74
67434;BME280;54305;47.950;6.572;2022-07-29T12:56:26;94364.13;;;25.98;28.65
67434;BME280;54305;47.950;6.572;2022-07-29T12:58:51;94370.16;;;26.20;27.56
67434;BME280;54305;47.950;6.572;2022-07-29T13:01:17;94377.66;;;25.17;28.27
67434;BME280;54305;47.950;6.572;2022-07-29T13:03:48;94373.25;;;24.85;28.68
67434;BME280;54305;47.950;6.572;2022-07-29T13:06:30;94373.91;;;25.18;28.00
67434;BME280;54305;47.950;6.572;2022-07-29T13:13:59;94373.81;;;25.08;29.14
67434;BME280;54305;47.950;6.572;2022-07-29T13:16:24;94363.59;;;24.79;29.02
67434;BME280;54305;47.950;6.572;2022-07-29T13:19:02;94365.03;;;24.86;30.58
67434;BME280;54305;47.950;6.572;2022-07-29T13:21:28;94379.56;;;24.79;29.63
67434;BME280;54305;47.950;6.572;2022-07-29T13:23:53;94376.03;;;24.73;31.07
67434;BME280;54305;47.950;6.572;2022-07-29T13:26:18;94378.53;;;25.44;29.92
67434;BME280;54305;47.950;6.572;2022-07-29T13:28:44;94379.16;;;25.56;30.15
67434;BME280;54305;47.950;6.572;2022-07-29T13:31:10;94382.94;;;25.34;31.23
67434;BME280;54305;47.950;6.572;2022-07-29T13:33:35;94383.94;;;25.28;30.51
67434;BME280;54305;47.950;6.572;2022-07-29T13:36:00;94379.84;;;25.68;30.25
67434;BME280;54305;47.950;6.572;2022-07-29T13:38:26;94381.19;;;25.44;31.31
67434;BME280;54305;47.950;6.572;2022-07-29T13:40:52;94382.63;;;25.30;31.98
67434;BME280;54305;47.950;6.572;2022-07-29T13:43:17;94389.13;;;24.96;31.91
67434;BME280;54305;47.950;6.572;2022-07-29T13:45:43;94382.06;;;25.28;31.90
67434;BME280;54305;47.950;6.572;2022-07-29T13:48:09;94369.19;;;25.95;31.26
67434;BME280;54305;47.950;6.572;2022-07-29T13:50:40;94371.91;;;26.36;30.17
67434;BME280;54305;47.950;6.572;2022-07-29T13:53:06;94364.22;;;26.08;30.38
67434;BME280;54305;47.950;6.572;2022-07-29T13:55:38;94363.16;;;25.83;30.83